createdAt,value
2018-11-04T00:04:59.008Z,10.50
2018-11-04T00:10:02.662Z,10.50
2018-11-04T00:15:07.120Z,10.40
2018-11-04T00:20:12.255Z,10.40
2018-11-04T00:25:15.672Z,10.40
2018-11-04T00:30:19.221Z,10.40
2018-11-04T00:35:22.669Z,10.40
2018-11-04T00:40:25.985Z,10.40
2018-11-04T00:45:29.519Z,10.40
2018-11-04T00:50:32.868Z,10.40
2018-11-04T00:55:36.257Z,10.40
2018-11-04T01:00:39.707Z,10.40
2018-11-04T01:05:43.028Z,10.40
2018-11-04T01:10:46.556Z,10.40
2018-11-04T01:15:49.946Z,10.30
2018-11-04T01:20:53.296Z,10.40
2018-11-04T01:25:56.791Z,10.40
2018-11-04T01:31:00.114Z,10.30
2018-11-04T01:36:03.504Z,10.30
2018-11-04T01:41:07.286Z,10.20
2018-11-04T01:46:10.857Z,10.20
2018-11-04T01:51:14.412Z,10.20
2018-11-04T01:56:17.971Z,10.30
2018-11-04T02:01:21.451Z,10.20
2018-11-04T02:06:24.983Z,10.20
2018-11-04T02:11:28.477Z,10.20
2018-11-04T02:16:32.040Z,10.20
2018-11-04T02:21:35.497Z,10.20
2018-11-04T02:26:38.827Z,10.20
2018-11-04T02:31:44.393Z,10.20
2018-11-04T02:36:47.729Z,10.20
2018-11-04T02:41:51.142Z,10.20
2018-11-04T02:46:54.545Z,10.20
2018-11-04T02:51:57.974Z,10.20
2018-11-04T02:57:01.361Z,10.30
2018-11-04T03:02:05.405Z,10.20
2018-11-04T03:07:08.741Z,10.20
2018-11-04T03:12:12.182Z,10.20
2018-11-04T03:17:15.581Z,10.20
2018-11-04T03:22:19.031Z,10.20
2018-11-04T03:27:22.509Z,10.20
2018-11-04T03:32:25.877Z,10.20
2018-11-04T03:37:29.227Z,10.20
2018-11-04T03:42:32.750Z,10.20
2018-11-04T03:47:36.265Z,10.20
2018-11-04T03:52:39.628Z,10.20
2018-11-04T03:57:42.974Z,10.30
2018-11-04T04:02:46.543Z,10.20
2018-11-04T04:07:49.950Z,10.30
2018-11-04T04:12:53.294Z,10.30
2018-11-04T04:17:56.749Z,10.30
2018-11-04T04:23:00.117Z,10.30
2018-11-04T04:28:03.549Z,10.30
2018-11-04T04:33:11.089Z,10.30
2018-11-04T04:38:14.473Z,10.30
2018-11-04T04:43:17.882Z,10.30
2018-11-04T04:48:21.492Z,10.20
2018-11-04T04:53:25.547Z,10.30
2018-11-04T04:58:28.852Z,10.30
2018-11-04T05:03:32.198Z,10.20
2018-11-04T05:08:35.597Z,10.20
2018-11-04T05:13:39.125Z,10.20
2018-11-04T05:18:42.572Z,10.20
2018-11-04T05:23:45.907Z,10.20
2018-11-04T05:28:49.325Z,10.20
2018-11-04T05:33:52.693Z,10.20
2018-11-04T05:38:56.047Z,10.20
2018-11-04T05:43:59.488Z,10.20
2018-11-04T05:49:02.889Z,10.10
2018-11-04T05:54:07.145Z,10.10
2018-11-04T05:59:10.678Z,10.10
2018-11-04T06:09:17.219Z,10.10
2018-11-04T06:19:23.906Z,10.10
2018-11-04T06:24:27.270Z,10.10
2018-11-04T06:29:30.734Z,10.00
2018-11-04T06:34:34.142Z,10.10
2018-11-04T06:39:37.500Z,10.20
2018-11-04T06:44:40.852Z,10.20
2018-11-04T06:49:44.294Z,10.30
2018-11-04T06:54:47.835Z,10.30
2018-11-04T07:04:54.309Z,10.40
2018-11-04T07:09:57.642Z,10.40
2018-11-04T07:15:01.095Z,10.50
2018-11-04T07:20:05.241Z,10.50
2018-11-04T07:25:08.546Z,10.60
2018-11-04T07:30:12.606Z,10.60
2018-11-04T07:35:17.149Z,10.60
2018-11-04T07:40:20.589Z,10.60
2018-11-04T07:45:24.003Z,10.60
2018-11-04T07:50:27.718Z,10.60
2018-11-04T08:00:34.332Z,10.60
2018-11-04T08:10:40.924Z,10.70
2018-11-04T08:15:44.355Z,10.70
2018-11-04T08:20:47.697Z,10.70
2018-11-04T08:25:51.207Z,10.70
2018-11-04T08:30:54.841Z,10.80
2018-11-04T08:35:58.488Z,10.80
2018-11-04T08:41:01.905Z,10.80
2018-11-04T08:46:05.448Z,10.80
2018-11-04T08:51:08.866Z,10.80
2018-11-04T08:56:12.393Z,10.90
2018-11-04T09:01:15.959Z,10.80
2018-11-04T09:06:19.613Z,11.00
2018-11-04T09:11:22.973Z,11.10
2018-11-04T09:16:26.376Z,11.10
2018-11-04T09:21:29.795Z,11.10
2018-11-04T09:26:33.169Z,11.10
2018-11-04T09:31:36.504Z,11.20
2018-11-04T09:36:40.092Z,11.40
2018-11-04T09:41:43.429Z,11.40
2018-11-04T09:46:46.853Z,11.40
2018-11-04T09:51:50.445Z,11.50
2018-11-04T09:56:53.805Z,11.60
2018-11-04T10:01:57.318Z,11.60
2018-11-04T10:07:00.784Z,11.70
2018-11-04T10:12:04.354Z,11.70
2018-11-04T10:17:07.932Z,11.70
2018-11-04T10:22:11.437Z,11.60
2018-11-04T10:27:14.856Z,11.80
2018-11-04T10:32:18.414Z,11.90
2018-11-04T10:37:21.870Z,11.80
2018-11-04T10:42:25.257Z,11.80
2018-11-04T10:47:28.757Z,11.80
2018-11-04T10:52:32.084Z,11.80
2018-11-04T10:57:35.453Z,11.90
2018-11-04T11:02:39.109Z,11.80
2018-11-04T11:07:42.725Z,12.00
2018-11-04T11:12:46.105Z,12.00
2018-11-04T11:17:49.502Z,12.10
2018-11-04T11:22:53.078Z,12.30
2018-11-04T11:27:56.425Z,12.30
2018-11-04T11:32:59.818Z,12.40
2018-11-04T11:38:03.222Z,12.40
2018-11-04T11:43:06.550Z,12.30
2018-11-04T11:48:10.265Z,12.30
2018-11-04T11:53:13.601Z,12.50
2018-11-04T11:58:17.110Z,12.50
2018-11-04T12:03:20.609Z,12.40
2018-11-04T12:08:24.050Z,12.40
2018-11-04T12:13:27.610Z,12.30
2018-11-04T12:23:34.262Z,12.20
2018-11-04T12:33:40.875Z,12.20
2018-11-04T12:38:44.365Z,12.20
2018-11-04T12:43:47.741Z,12.30
2018-11-04T12:48:51.270Z,12.30
2018-11-04T12:53:54.661Z,12.40
2018-11-04T12:58:58.089Z,12.40
2018-11-04T13:04:01.491Z,12.40
2018-11-04T13:09:07.246Z,12.40
2018-11-04T13:14:10.610Z,12.40
2018-11-04T13:19:14.006Z,12.50
2018-11-04T13:24:17.449Z,12.60
2018-11-04T13:29:20.826Z,12.50
2018-11-04T13:34:24.221Z,12.50
2018-11-04T13:39:27.552Z,12.50
2018-11-04T13:44:30.935Z,12.40
2018-11-04T13:49:34.456Z,12.40
2018-11-04T13:54:37.858Z,12.50
2018-11-04T13:59:41.307Z,12.50
2018-11-04T14:04:45.677Z,12.50
2018-11-04T14:09:49.086Z,12.60
2018-11-04T14:14:52.388Z,12.60
2018-11-04T14:19:55.797Z,12.60
2018-11-04T14:24:59.272Z,12.60
2018-11-04T14:30:02.654Z,12.60
2018-11-04T14:35:06.834Z,12.60
2018-11-04T14:40:12.320Z,12.60
2018-11-04T14:50:19.684Z,12.50
2018-11-04T14:55:23.285Z,12.40
2018-11-04T15:00:26.761Z,12.40
2018-11-04T15:05:30.278Z,12.40
2018-11-04T15:10:33.698Z,12.40
2018-11-04T15:15:37.021Z,12.30
2018-11-04T15:20:40.562Z,12.30
2018-11-04T15:25:43.917Z,12.20
2018-11-04T15:30:47.324Z,12.20
2018-11-04T15:35:50.721Z,12.10
2018-11-04T15:40:54.165Z,12.10
2018-11-04T15:45:57.731Z,12.00
2018-11-04T15:51:01.307Z,11.90
2018-11-04T15:56:04.829Z,11.90
2018-11-04T16:01:08.194Z,11.90
2018-11-04T16:06:11.713Z,11.90
2018-11-04T16:11:15.135Z,11.90
2018-11-04T16:16:18.585Z,11.70
2018-11-04T16:21:22.270Z,11.70
2018-11-04T16:26:25.733Z,11.60
2018-11-04T16:31:29.396Z,11.60
2018-11-04T16:41:36.169Z,11.40
2018-11-04T16:46:39.881Z,11.40
2018-11-04T16:51:43.196Z,11.30
2018-11-04T16:56:46.816Z,11.30
2018-11-04T17:01:50.252Z,11.20
2018-11-04T17:06:53.757Z,11.10
2018-11-04T17:11:57.243Z,10.90
2018-11-04T17:17:00.879Z,10.90
2018-11-04T17:22:04.282Z,10.80
2018-11-04T17:27:07.993Z,10.70
2018-11-04T17:32:11.582Z,10.60
2018-11-04T17:37:15.152Z,10.40
2018-11-04T17:42:18.876Z,10.30
2018-11-04T17:47:22.272Z,10.20
2018-11-04T17:52:25.753Z,10.00
2018-11-04T17:57:29.242Z,9.90
2018-11-04T18:02:32.838Z,9.80
2018-11-04T18:07:36.386Z,9.80
2018-11-04T18:12:39.938Z,9.70
2018-11-04T18:17:43.270Z,9.50
2018-11-04T18:22:46.609Z,9.50
2018-11-04T18:27:50.077Z,9.50
2018-11-04T18:32:53.575Z,9.40
2018-11-04T18:37:57.042Z,9.40
2018-11-04T18:43:00.778Z,9.30
2018-11-04T18:48:04.498Z,9.20
2018-11-04T18:53:08.305Z,9.20
2018-11-04T18:58:12.203Z,9.00
2018-11-04T19:03:16.093Z,8.90
2018-11-04T19:08:19.717Z,8.80
2018-11-04T19:13:23.193Z,8.70
2018-11-04T19:18:26.816Z,8.50
2018-11-04T19:23:30.498Z,8.50
2018-11-04T19:28:33.950Z,8.30
2018-11-04T19:33:37.603Z,8.20
2018-11-04T19:38:41.546Z,8.20
2018-11-04T19:43:45.213Z,8.30
2018-11-04T19:48:48.769Z,8.30
2018-11-04T19:53:52.173Z,8.20
2018-11-04T19:58:55.779Z,8.20
2018-11-04T20:03:59.237Z,8.10
2018-11-04T20:09:08.220Z,8.00
2018-11-04T20:14:14.959Z,7.90
2018-11-04T20:19:23.637Z,7.80
2018-11-04T20:26:34.478Z,7.60
2018-11-04T20:31:43.234Z,7.60
2018-11-04T20:36:46.641Z,7.70
2018-11-04T20:41:50.087Z,7.50
2018-11-04T20:46:53.448Z,7.30
2018-11-04T20:51:57.027Z,7.20
2018-11-04T20:57:05.585Z,7.10
2018-11-04T21:02:08.939Z,7.10
2018-11-04T21:07:12.416Z,7.00
2018-11-04T21:12:15.906Z,6.90
2018-11-04T21:17:19.292Z,6.90
2018-11-04T21:22:22.644Z,6.90
2018-11-04T21:27:26.148Z,6.90
2018-11-04T21:32:29.416Z,6.90
2018-11-04T21:37:32.832Z,7.00
2018-11-04T21:42:36.355Z,6.90
2018-11-04T21:47:39.629Z,6.90
2018-11-04T21:52:42.912Z,6.80
2018-11-04T21:57:46.349Z,6.80
2018-11-04T22:02:49.659Z,6.50
2018-11-04T22:07:53.017Z,6.30
2018-11-04T22:12:56.297Z,6.30
2018-11-04T22:17:59.605Z,6.30
2018-11-04T22:23:02.954Z,6.50
2018-11-04T22:28:06.331Z,6.40
2018-11-04T22:33:09.687Z,6.40
2018-11-04T22:38:13.029Z,6.40
2018-11-04T22:43:16.457Z,6.40
2018-11-04T22:48:19.774Z,6.40
2018-11-04T22:53:23.083Z,6.30
2018-11-04T22:58:26.386Z,6.20
2018-11-04T23:03:29.728Z,6.10
2018-11-04T23:08:33.066Z,5.90
2018-11-04T23:13:36.603Z,5.80
2018-11-04T23:18:40.243Z,5.80
2018-11-04T23:23:43.759Z,5.80
2018-11-04T23:28:47.271Z,5.90
2018-11-04T23:33:50.728Z,5.80
2018-11-04T23:38:54.050Z,5.90
2018-11-04T23:43:57.389Z,5.80
2018-11-04T23:49:00.706Z,6.00
2018-11-04T23:54:04.163Z,6.00
2018-11-04T23:59:07.590Z,6.10
